createdAt,value
2023-02-12T00:03:08.605Z,101720.61
2023-02-12T00:12:41.676Z,101716.91
2023-02-12T00:22:13.729Z,101724.28
2023-02-12T00:31:47.945Z,101724.40
2023-02-12T00:41:23.272Z,101723.36
2023-02-12T00:50:55.214Z,101723.18
2023-02-12T01:00:29.217Z,101733.71
2023-02-12T01:10:04.625Z,101727.38
2023-02-12T01:19:37.135Z,101736.13
2023-02-12T01:29:11.192Z,101726.77
2023-02-12T01:38:45.211Z,101728.77
2023-02-12T01:48:18.803Z,101724.89
2023-02-12T01:57:52.470Z,101723.36
2023-02-12T02:07:27.349Z,101717.81
2023-02-12T02:17:00.923Z,101715.05
2023-02-12T02:26:34.769Z,101713.16
2023-02-12T02:36:06.812Z,101703.16
2023-02-12T02:45:40.547Z,101712.59
2023-02-12T02:55:15.560Z,101714.30
2023-02-12T03:04:47.804Z,101708.81
2023-02-12T03:14:21.514Z,101703.43
2023-02-12T03:23:56.998Z,101708.41
2023-02-12T03:33:29.882Z,101705.42
2023-02-12T03:43:01.845Z,101707.51
2023-02-12T03:52:35.551Z,101706.28
2023-02-12T04:02:09.489Z,101705.30
2023-02-12T04:11:44.840Z,101724.81
2023-02-12T04:21:16.451Z,101728.50
2023-02-12T04:30:49.557Z,101728.62
2023-02-12T04:40:24.955Z,101739.74
2023-02-12T04:49:58.070Z,101738.25
2023-02-12T04:59:29.997Z,101744.59
2023-02-12T05:09:05.117Z,101739.19
2023-02-12T05:18:36.564Z,101739.69
2023-02-12T05:28:10.038Z,101737.63
2023-02-12T05:37:43.506Z,101740.38
2023-02-12T05:47:16.910Z,101739.54
2023-02-12T05:56:50.935Z,101739.37
2023-02-12T06:06:24.655Z,101733.33
2023-02-12T06:15:58.641Z,101732.95
2023-02-12T06:25:31.850Z,101741.02
2023-02-12T06:35:05.477Z,101751.68
2023-02-12T06:44:40.612Z,101760.60
2023-02-12T06:54:12.190Z,101766.67
2023-02-12T07:03:46.359Z,101777.94
2023-02-12T07:13:22.109Z,101777.94
2023-02-12T07:22:54.404Z,101791.07
2023-02-12T07:32:28.470Z,101792.79
2023-02-12T07:42:02.494Z,101800.86
2023-02-12T07:51:36.848Z,101800.33
2023-02-12T08:01:12.284Z,101805.33
2023-02-12T08:10:44.469Z,101806.34
2023-02-12T08:20:18.333Z,101811.92
2023-02-12T08:29:54.232Z,101817.20
2023-02-12T08:39:26.600Z,101823.14
2023-02-12T08:49:00.687Z,101830.59
2023-02-12T08:58:35.142Z,101830.94
2023-02-12T09:08:10.995Z,101836.30
2023-02-12T09:17:43.252Z,101838.83
2023-02-12T09:27:18.762Z,101844.56
2023-02-12T09:36:51.993Z,101843.10
2023-02-12T09:37:54.345Z,101843.06
2023-02-12T09:47:27.852Z,101846.05
2023-02-12T09:57:02.420Z,101839.78
2023-02-12T09:58:04.892Z,101845.08
2023-02-12T09:59:07.423Z,101843.34
2023-02-12T10:00:09.800Z,101840.91
2023-02-12T10:01:12.316Z,101841.89
2023-02-12T10:02:16.352Z,101839.64
2023-02-12T10:11:47.484Z,101845.78
2023-02-12T10:21:21.855Z,101843.50
2023-02-12T10:22:25.902Z,101846.20
2023-02-12T10:23:29.837Z,101852.42
2023-02-12T10:24:32.231Z,101844.83
2023-02-12T10:25:36.172Z,101838.30
2023-02-12T10:26:38.528Z,101840.94
2023-02-12T10:27:40.976Z,101839.97
2023-02-12T10:28:43.444Z,101840.60
2023-02-12T10:29:47.474Z,101836.67
2023-02-12T10:39:19.295Z,101829.38
2023-02-12T10:40:21.528Z,101836.88
2023-02-12T10:41:23.988Z,101833.25
2023-02-12T10:42:26.420Z,101836.75
2023-02-12T10:43:28.888Z,101834.73
2023-02-12T10:44:32.926Z,101836.16
2023-02-12T10:45:35.195Z,101834.70
2023-02-12T10:46:37.695Z,101835.47
2023-02-12T10:47:40.074Z,101831.20
2023-02-12T10:48:42.526Z,101827.20
2023-02-12T10:49:44.986Z,101828.11
2023-02-12T10:50:47.386Z,101822.03
2023-02-12T10:51:49.793Z,101829.30
2023-02-12T10:52:52.238Z,101825.97
2023-02-12T10:53:54.674Z,101823.70
2023-02-12T10:54:58.752Z,101823.53
2023-02-12T10:56:01.032Z,101822.77
2023-02-12T10:57:05.032Z,101820.22
2023-02-12T10:58:07.379Z,101825.29
2023-02-12T10:59:09.791Z,101824.51
2023-02-12T11:00:12.198Z,101820.16
2023-02-12T11:01:16.247Z,101822.19
2023-02-12T11:02:18.635Z,101818.34
2023-02-12T11:03:21.076Z,101821.58
2023-02-12T11:04:25.104Z,101816.84
2023-02-12T11:05:27.448Z,101819.81
2023-02-12T11:06:29.850Z,101818.85
2023-02-12T11:07:33.870Z,101818.05
2023-02-12T11:08:36.262Z,101815.38
2023-02-12T11:09:38.680Z,101811.15
2023-02-12T11:10:42.741Z,101809.03
2023-02-12T11:11:47.614Z,101809.14
2023-02-12T11:12:48.888Z,101812.64
2023-02-12T11:13:51.374Z,101810.97
2023-02-12T11:14:55.329Z,101800.44
2023-02-12T11:15:58.123Z,101800.12
2023-02-12T11:17:01.713Z,101803.75
2023-02-12T11:18:05.813Z,101799.40
2023-02-12T11:19:07.981Z,101797.23
2023-02-12T11:20:10.354Z,101798.02
2023-02-12T11:21:12.895Z,101802.49
2023-02-12T11:22:15.278Z,101797.87
2023-02-12T11:23:19.310Z,101795.14
2023-02-12T11:24:21.622Z,101801.67
2023-02-12T11:25:24.112Z,101798.61
2023-02-12T11:26:26.545Z,101793.42
2023-02-12T11:27:30.632Z,101794.38
2023-02-12T11:28:33.049Z,101788.19
2023-02-12T11:29:35.326Z,101789.09
2023-02-12T11:30:39.381Z,101786.02
2023-02-12T11:31:41.846Z,101785.14
2023-02-12T11:32:44.052Z,101782.30
2023-02-12T11:33:46.450Z,101779.27
2023-02-12T11:34:48.859Z,101775.69
2023-02-12T11:35:51.305Z,101777.69
2023-02-12T11:36:55.321Z,101774.39
2023-02-12T11:37:57.637Z,101776.84
2023-02-12T11:39:01.612Z,101773.50
2023-02-12T11:40:05.518Z,101772.44
2023-02-12T11:41:07.824Z,101767.81
2023-02-12T11:42:11.859Z,101771.27
2023-02-12T11:43:14.124Z,101775.75
2023-02-12T11:44:16.568Z,101771.34
2023-02-12T11:53:48.974Z,101767.19
2023-02-12T11:54:51.515Z,101763.39
2023-02-12T11:55:53.962Z,101765.97
2023-02-12T11:56:56.425Z,101768.20
2023-02-12T11:58:00.394Z,101767.09
2023-02-12T11:59:02.808Z,101766.38
2023-02-12T12:00:05.344Z,101766.04
2023-02-12T12:01:09.299Z,101760.78
2023-02-12T12:02:13.230Z,101766.10
2023-02-12T12:03:15.612Z,101764.27
2023-02-12T12:04:17.922Z,101763.26
2023-02-12T12:05:20.312Z,101762.08
2023-02-12T12:06:24.379Z,101761.63
2023-02-12T12:07:26.961Z,101762.64
2023-02-12T12:08:29.529Z,101762.36
2023-02-12T12:09:31.787Z,101759.73
2023-02-12T12:10:34.275Z,101760.52
2023-02-12T12:11:36.857Z,101762.73
2023-02-12T12:12:39.279Z,101764.92
2023-02-12T12:13:43.270Z,101762.20
2023-02-12T12:14:45.532Z,101764.41
2023-02-12T12:15:47.992Z,101764.77
2023-02-12T12:16:50.448Z,101757.06
2023-02-12T12:17:52.856Z,101757.27
2023-02-12T12:18:55.298Z,101758.56
2023-02-12T12:19:57.696Z,101762.48
2023-02-12T12:21:00.114Z,101758.80
2023-02-12T12:22:02.532Z,101760.97
2023-02-12T12:23:06.759Z,101761.24
2023-02-12T12:24:10.711Z,101760.41
2023-02-12T12:25:13.006Z,101757.50
2023-02-12T12:26:15.529Z,101757.11
2023-02-12T12:27:18.896Z,101759.02
2023-02-12T12:28:21.295Z,101758.00
2023-02-12T12:29:23.624Z,101759.02
2023-02-12T12:30:26.081Z,101753.59
2023-02-12T12:31:30.264Z,101750.52
2023-02-12T12:32:32.588Z,101748.95
2023-02-12T12:33:36.859Z,101749.56
2023-02-12T12:34:39.147Z,101748.77
2023-02-12T12:35:41.671Z,101749.55
2023-02-12T12:36:44.184Z,101747.61
2023-02-12T12:37:47.890Z,101745.14
2023-02-12T12:38:51.861Z,101742.67
2023-02-12T12:39:55.717Z,101742.80
2023-02-12T12:40:57.970Z,101738.27
2023-02-12T12:42:00.367Z,101742.61
2023-02-12T12:43:02.905Z,101740.16
2023-02-12T12:44:05.332Z,101739.98
2023-02-12T12:45:07.769Z,101737.87
2023-02-12T12:46:10.260Z,101739.48
2023-02-12T12:47:12.671Z,101733.78
2023-02-12T12:48:15.103Z,101739.73
2023-02-12T12:49:17.552Z,101734.64
2023-02-12T12:50:20.020Z,101737.42
2023-02-12T12:51:24.077Z,101738.20
2023-02-12T12:52:26.333Z,101734.97
2023-02-12T12:53:28.793Z,101736.31
2023-02-12T12:54:32.855Z,101728.20
2023-02-12T12:55:35.144Z,101732.52
2023-02-12T12:56:37.673Z,101726.27
2023-02-12T12:57:40.083Z,101726.48
2023-02-12T12:58:44.189Z,101724.30
2023-02-12T12:59:46.561Z,101724.58
2023-02-12T13:00:49.057Z,101721.91
2023-02-12T13:01:51.449Z,101723.11
2023-02-12T13:02:53.923Z,101722.39
2023-02-12T13:03:56.479Z,101718.27
2023-02-12T13:04:58.882Z,101720.55
2023-02-12T13:06:01.370Z,101718.25
2023-02-12T13:07:03.827Z,101718.03
2023-02-12T13:08:06.301Z,101723.67
2023-02-12T13:09:08.951Z,101715.34
2023-02-12T13:10:13.209Z,101718.64
2023-02-12T13:11:15.429Z,101712.72
2023-02-12T13:12:17.814Z,101714.06
2023-02-12T13:13:20.274Z,101712.31
2023-02-12T13:14:22.751Z,101710.47
2023-02-12T13:15:25.225Z,101704.20
2023-02-12T13:16:27.687Z,101710.39
2023-02-12T13:17:30.102Z,101710.08
2023-02-12T13:18:34.166Z,101707.91
2023-02-12T13:19:36.500Z,101704.68
2023-02-12T13:20:38.904Z,101703.45
2023-02-12T13:21:41.341Z,101703.20
2023-02-12T13:22:45.334Z,101703.27
2023-02-12T13:23:47.720Z,101706.38
2023-02-12T13:24:51.742Z,101700.24
2023-02-12T13:25:54.502Z,101703.91
2023-02-12T13:26:56.691Z,101699.66
2023-02-12T13:27:59.163Z,101700.32
2023-02-12T13:29:01.625Z,101704.81
2023-02-12T13:30:04.086Z,101701.93
2023-02-12T13:31:24.828Z,101702.16
2023-02-12T13:32:12.046Z,101699.64
2023-02-12T13:33:14.324Z,101696.06
2023-02-12T13:34:16.764Z,101702.27
2023-02-12T13:35:19.148Z,101700.71
2023-02-12T13:36:24.230Z,101703.56
2023-02-12T13:37:26.537Z,101702.71
2023-02-12T13:38:29.200Z,101699.76
2023-02-12T13:39:34.227Z,101698.69
2023-02-12T13:40:35.550Z,101694.73
2023-02-12T13:41:37.997Z,101693.72
2023-02-12T13:42:40.462Z,101691.94
2023-02-12T13:43:42.916Z,101693.44
2023-02-12T13:44:45.385Z,101690.05
2023-02-12T13:45:49.434Z,101693.27
2023-02-12T13:46:51.862Z,101690.61
2023-02-12T13:47:56.154Z,101695.19
2023-02-12T13:49:00.302Z,101695.78
2023-02-12T13:50:04.273Z,101699.70
2023-02-12T13:51:06.555Z,101702.42
2023-02-12T13:52:08.935Z,101695.89
2023-02-12T13:53:13.011Z,101697.41
2023-02-12T13:54:15.288Z,101697.16
2023-02-12T13:55:19.305Z,101696.45
2023-02-12T13:56:23.291Z,101696.80
2023-02-12T13:57:27.270Z,101691.95
2023-02-12T13:58:29.527Z,101693.56
2023-02-12T13:59:33.576Z,101687.97
2023-02-12T14:00:36.861Z,101696.69
2023-02-12T14:01:39.358Z,101695.67
2023-02-12T14:11:10.600Z,101693.20
2023-02-12T14:12:14.689Z,101685.66
2023-02-12T14:13:17.049Z,101690.41
2023-02-12T14:14:19.805Z,101692.58
2023-02-12T14:15:24.306Z,101688.73
2023-02-12T14:16:26.488Z,101685.31
2023-02-12T14:17:30.498Z,101685.25
2023-02-12T14:18:32.806Z,101689.73
2023-02-12T14:19:35.226Z,101689.39
2023-02-12T14:20:37.674Z,101686.33
2023-02-12T14:21:40.285Z,101688.12
2023-02-12T14:22:42.625Z,101686.94
2023-02-12T14:23:45.056Z,101691.73
2023-02-12T14:24:49.089Z,101685.83
2023-02-12T14:25:51.441Z,101692.45
2023-02-12T14:26:53.832Z,101692.86
2023-02-12T14:27:56.331Z,101697.16
2023-02-12T14:29:00.343Z,101689.27
2023-02-12T14:30:02.740Z,101685.57
2023-02-12T14:31:05.386Z,101684.86
2023-02-12T14:32:07.707Z,101679.71
2023-02-12T14:33:10.070Z,101677.92
2023-02-12T14:34:12.511Z,101680.20
2023-02-12T14:35:16.511Z,101679.70
2023-02-12T14:36:18.843Z,101683.00
2023-02-12T14:37:21.252Z,101679.48
2023-02-12T14:38:25.288Z,101678.59
2023-02-12T14:39:29.292Z,101678.15
2023-02-12T14:40:31.589Z,101682.39
2023-02-12T14:41:33.997Z,101672.39
2023-02-12T14:42:36.422Z,101676.98
2023-02-12T14:43:38.895Z,101674.36
2023-02-12T14:44:42.912Z,101666.14
2023-02-12T14:45:45.221Z,101667.20
2023-02-12T14:46:47.608Z,101668.58
2023-02-12T14:47:51.690Z,101662.44
2023-02-12T14:48:55.576Z,101668.47
2023-02-12T14:49:59.560Z,101667.41
2023-02-12T14:51:01.930Z,101667.86
2023-02-12T14:52:04.270Z,101669.24
2023-02-12T14:53:08.348Z,101662.66
2023-02-12T14:54:12.265Z,101665.34
2023-02-12T14:55:14.574Z,101669.13
2023-02-12T14:56:17.020Z,101669.07
2023-02-12T14:57:19.435Z,101667.07
2023-02-12T14:58:23.500Z,101664.94
2023-02-12T14:59:27.420Z,101662.89
2023-02-12T15:00:31.344Z,101661.77
2023-02-12T15:01:33.667Z,101668.13
2023-02-12T15:02:36.172Z,101668.34
2023-02-12T15:03:38.490Z,101669.86
2023-02-12T15:04:42.590Z,101661.19
2023-02-12T15:05:44.824Z,101664.16
2023-02-12T15:06:47.315Z,101668.02
2023-02-12T15:07:49.758Z,101668.52
2023-02-12T15:08:52.172Z,101665.67
2023-02-12T15:09:56.187Z,101659.75
2023-02-12T15:11:00.119Z,101661.39
2023-02-12T15:12:04.063Z,101662.91
2023-02-12T15:13:06.365Z,101660.88
2023-02-12T15:14:08.761Z,101660.55
2023-02-12T15:15:12.797Z,101656.47
2023-02-12T15:16:15.154Z,101657.47
2023-02-12T15:17:17.597Z,101654.80
2023-02-12T15:18:20.090Z,101655.63
2023-02-12T15:19:22.510Z,101651.34
2023-02-12T15:20:26.552Z,101646.64
2023-02-12T15:21:28.885Z,101651.11
2023-02-12T15:22:31.337Z,101649.10
2023-02-12T15:23:33.831Z,101649.49
2023-02-12T15:24:36.246Z,101648.11
2023-02-12T15:25:38.669Z,101651.78
2023-02-12T15:26:41.560Z,101649.17
2023-02-12T15:27:43.922Z,101651.73
2023-02-12T15:28:46.337Z,101652.19
2023-02-12T15:29:48.815Z,101650.08
2023-02-12T15:30:52.918Z,101648.79
2023-02-12T15:31:56.927Z,101650.02
2023-02-12T15:32:59.076Z,101648.01
2023-02-12T15:34:01.560Z,101651.23
2023-02-12T15:35:04.033Z,101648.12
2023-02-12T15:36:06.470Z,101652.38
2023-02-12T15:37:08.963Z,101654.22
2023-02-12T15:38:12.936Z,101653.17
2023-02-12T15:39:18.432Z,101653.83
2023-02-12T15:40:19.133Z,101653.27
2023-02-12T15:41:21.595Z,101652.89
2023-02-12T15:42:24.033Z,101655.20
2023-02-12T15:43:26.427Z,101659.99
2023-02-12T15:44:30.500Z,101653.59
2023-02-12T15:45:32.908Z,101651.58
2023-02-12T15:46:35.348Z,101655.08
2023-02-12T15:47:37.733Z,101647.61
2023-02-12T15:48:40.131Z,101646.83
2023-02-12T15:49:42.650Z,101649.52
2023-02-12T15:50:45.119Z,101652.02
2023-02-12T15:51:49.202Z,101650.48
2023-02-12T15:52:53.194Z,101653.25
2023-02-12T15:53:55.478Z,101653.55
2023-02-12T15:54:59.536Z,101652.97
2023-02-12T15:56:01.839Z,101647.84
2023-02-12T15:57:04.244Z,101651.52
2023-02-12T15:58:06.714Z,101650.42
2023-02-12T15:59:11.754Z,101643.66
2023-02-12T16:00:14.677Z,101642.48
2023-02-12T16:01:17.086Z,101641.66
2023-02-12T16:02:19.398Z,101637.41
2023-02-12T16:03:21.817Z,101643.23
2023-02-12T16:04:25.884Z,101643.22
2023-02-12T16:05:28.129Z,101645.40
2023-02-12T16:06:30.604Z,101640.42
2023-02-12T16:07:32.954Z,101641.98
2023-02-12T16:08:36.956Z,101644.55
2023-02-12T16:09:40.895Z,101645.55
2023-02-12T16:10:44.798Z,101645.32
2023-02-12T16:11:47.084Z,101644.94
2023-02-12T16:12:49.567Z,101639.47
2023-02-12T16:13:53.543Z,101642.84
2023-02-12T16:14:55.903Z,101639.77
2023-02-12T16:16:00.026Z,101641.05
2023-02-12T16:17:03.996Z,101640.59
2023-02-12T16:18:06.373Z,101638.20
2023-02-12T16:19:08.774Z,101643.22
2023-02-12T16:20:11.130Z,101644.04
2023-02-12T16:21:15.163Z,101640.89
2023-02-12T16:22:17.494Z,101641.23
2023-02-12T16:23:21.516Z,101640.22
2023-02-12T16:24:23.818Z,101644.00
2023-02-12T16:25:27.904Z,101645.60
2023-02-12T16:26:30.140Z,101645.64
2023-02-12T16:27:32.543Z,101647.92
2023-02-12T16:28:34.907Z,101649.91
2023-02-12T16:29:37.342Z,101647.39
2023-02-12T16:30:39.753Z,101647.43
2023-02-12T16:31:42.234Z,101646.36
2023-02-12T16:32:46.172Z,101643.28
2023-02-12T16:33:50.185Z,101642.70
2023-02-12T16:34:52.521Z,101649.27
2023-02-12T16:44:23.601Z,101640.52
2023-02-12T16:45:26.101Z,101640.05
2023-02-12T16:46:28.517Z,101640.90
2023-02-12T16:56:01.086Z,101648.67
2023-02-12T17:05:35.879Z,101663.05
2023-02-12T17:15:07.970Z,101669.45
2023-02-12T17:24:41.275Z,101680.52
2023-02-12T17:34:12.942Z,101680.67
2023-02-12T17:43:46.464Z,101692.24
2023-02-12T17:53:19.693Z,101705.02
2023-02-12T18:02:54.613Z,101698.42
2023-02-12T18:12:25.621Z,101704.48
2023-02-12T18:21:59.276Z,101702.87
2023-02-12T18:31:34.451Z,101707.47
2023-02-12T18:41:07.494Z,101698.88
2023-02-12T18:50:40.938Z,101687.47
2023-02-12T19:00:11.977Z,101691.83
2023-02-12T19:09:44.807Z,101688.09
2023-02-12T19:19:17.421Z,101696.14
2023-02-12T19:28:49.201Z,101701.39
2023-02-12T19:38:23.160Z,101698.95
2023-02-12T19:47:54.327Z,101694.66
2023-02-12T19:57:25.995Z,101689.97
2023-02-12T20:07:00.989Z,101693.38
2023-02-12T20:16:32.875Z,101686.89
2023-02-12T20:26:06.098Z,101695.73
2023-02-12T20:35:38.685Z,101701.67
2023-02-12T20:45:11.814Z,101700.88
2023-02-12T20:54:45.485Z,101704.92
2023-02-12T21:04:16.774Z,101712.71
2023-02-12T21:13:54.019Z,101714.53
2023-02-12T21:23:24.336Z,101716.38
2023-02-12T21:32:57.843Z,101724.48
2023-02-12T21:42:33.484Z,101733.04
2023-02-12T21:43:37.354Z,101722.66
2023-02-12T21:53:10.029Z,101733.50
2023-02-12T22:02:41.685Z,101731.10
2023-02-12T22:12:15.332Z,101723.94
2023-02-12T22:21:48.740Z,101729.46
2023-02-12T22:31:22.218Z,101731.74
2023-02-12T22:40:56.537Z,101728.52
2023-02-12T22:50:30.117Z,101728.40
2023-02-12T23:00:05.280Z,101733.66
2023-02-12T23:09:37.029Z,101734.76
2023-02-12T23:19:11.118Z,101737.63
2023-02-12T23:28:46.501Z,101741.98
2023-02-12T23:38:20.201Z,101739.12
2023-02-12T23:47:53.719Z,101726.33
2023-02-12T23:57:25.613Z,101720.46
